Time;durP1;ratioP1;P1;durP2;ratioP2;P2;SDS_P1;SDS_P2;PMS_P1;PMS_P2;Temp;Humidity;BMP_temperature;BMP_pressure;BME280_temperature;BME280_humidity;BME280_pressure;Samples;Min_cycle;Max_cycle;Signal;HPM_P1;HPM_P2
2022/04/06 00:00:37;;;;;;;10.65;9.05;;;10.00;99.90;;;;;;2071818;28;20026;-70
2022/04/06 00:01:37;;;;;;;9.93;8.55;;;10.00;99.90;;;;;;2071704;28;20022;-69
2022/04/06 00:02:39;;;;;;;10.35;8.90;;;10.00;99.90;;;;;;2071819;28;20044;-69
2022/04/06 00:03:40;;;;;;;11.07;8.85;;;10.00;99.90;;;;;;2071911;28;20065;-69
2022/04/06 00:04:41;;;;;;;11.02;9.13;;;10.00;99.90;;;;;;2071876;28;20030;-69
2022/04/06 00:05:42;;;;;;;11.52;8.85;;;10.00;99.90;;;;;;2071258;28;20057;-69
2022/04/06 00:06:42;;;;;;;10.00;8.63;;;10.00;99.90;;;;;;2071105;28;20036;-70
2022/04/06 00:07:44;;;;;;;10.48;8.90;;;10.00;99.90;;;;;;2071714;28;20114;-70
2022/04/06 00:08:44;;;;;;;10.32;8.60;;;10.00;99.90;;;;;;2071623;28;20076;-70
2022/04/06 00:09:45;;;;;;;11.48;9.07;;;10.00;99.90;;;;;;2071181;28;20079;-69
2022/04/06 00:10:46;;;;;;;10.23;8.90;;;10.00;99.90;;;;;;2071321;28;20041;-69
2022/04/06 00:11:48;;;;;;;10.30;9.13;;;10.00;99.90;;;;;;2071949;28;20030;-69
2022/04/06 00:12:48;;;;;;;9.85;8.63;;;10.00;99.90;;;;;;2071792;28;20018;-69
2022/04/06 00:13:50;;;;;;;10.45;8.70;;;10.00;99.90;;;;;;2071691;28;20405;-69
2022/04/06 00:14:50;;;;;;;10.65;9.18;;;10.10;99.90;;;;;;2071950;28;20034;-70
2022/04/06 00:15:51;;;;;;;11.40;8.63;;;10.10;99.90;;;;;;2072161;28;20564;-70
2022/04/06 00:16:51;;;;;;;10.63;8.63;;;10.10;99.90;;;;;;2072162;28;20445;-70
2022/04/06 00:17:53;;;;;;;10.75;9.05;;;10.10;99.90;;;;;;2072094;28;20454;-69
2022/04/06 00:18:53;;;;;;;11.20;9.23;;;10.10;99.90;;;;;;2071393;28;20037;-69
2022/04/06 00:19:54;;;;;;;10.25;8.88;;;10.10;99.90;;;;;;2071949;28;20022;-68
2022/04/06 00:20:54;;;;;;;10.98;9.38;;;10.10;99.90;;;;;;2071851;28;20488;-70
2022/04/06 00:21:55;;;;;;;11.98;9.23;;;10.20;99.90;;;;;;2072583;28;20084;-68
2022/04/06 00:22:56;;;;;;;11.18;9.00;;;10.20;99.90;;;;;;2063595;28;20026;-69
2022/04/06 00:23:56;;;;;;;11.52;9.20;;;10.20;99.90;;;;;;2063920;28;20105;-70
2022/04/06 00:24:58;;;;;;;10.52;8.60;;;10.20;99.90;;;;;;2072844;28;20216;-70
2022/04/06 00:25:59;;;;;;;11.95;9.25;;;10.20;99.90;;;;;;2072245;28;20124;-71
2022/04/06 00:26:59;;;;;;;12.15;9.13;;;10.20;99.90;;;;;;2072609;28;20081;-71
2022/04/06 00:28:00;;;;;;;12.35;9.38;;;10.20;99.90;;;;;;2073222;28;20038;-69
2022/04/06 00:29:01;;;;;;;10.52;9.10;;;10.20;99.90;;;;;;2072631;28;20029;-70
2022/04/06 00:30:03;;;;;;;10.80;9.20;;;10.20;99.90;;;;;;2072275;28;20026;-70
2022/04/06 00:31:03;;;;;;;10.65;8.82;;;10.20;99.90;;;;;;2072047;28;20119;-70
2022/04/06 00:32:04;;;;;;;12.90;10.07;;;10.20;99.90;;;;;;2071454;28;20073;-71
2022/04/06 00:33:05;;;;;;;10.75;9.30;;;10.20;99.90;;;;;;2071600;28;20035;-70
2022/04/06 00:34:05;;;;;;;11.73;9.82;;;10.20;99.90;;;;;;2071738;28;20030;-69
2022/04/06 00:36:26;;;;;;;13.57;9.68;;;10.20;99.90;;;;;;2071767;28;20088;-70
2022/04/06 00:37:26;;;;;;;12.43;9.50;;;10.20;99.90;;;;;;2071001;28;20034;-70
2022/04/06 00:38:27;;;;;;;11.55;9.80;;;10.20;99.90;;;;;;2070750;28;20109;-70
2022/04/06 00:39:27;;;;;;;11.73;9.80;;;10.20;99.90;;;;;;2071728;28;20026;-70
2022/04/06 00:40:29;;;;;;;11.18;9.48;;;10.20;99.90;;;;;;2071511;28;20035;-70
2022/04/06 00:41:30;;;;;;;12.65;10.32;;;10.20;99.90;;;;;;2070998;28;20025;-70
2022/04/06 00:42:30;;;;;;;12.57;9.75;;;10.20;99.90;;;;;;2071218;28;20056;-71
2022/04/06 00:43:31;;;;;;;12.05;10.35;;;10.20;99.90;;;;;;2070920;28;20429;-70
2022/04/06 00:44:34;;;;;;;13.55;10.52;;;10.20;99.90;;;;;;2071021;28;20060;-70
2022/04/06 00:45:36;;;;;;;13.20;10.27;;;10.20;99.90;;;;;;2071745;28;20038;-69
2022/04/06 00:46:36;;;;;;;12.25;10.38;;;10.20;99.90;;;;;;2071711;28;20087;-70
2022/04/06 00:47:37;;;;;;;12.32;10.23;;;10.10;99.90;;;;;;2071159;28;20025;-69
2022/04/06 00:48:38;;;;;;;13.27;10.73;;;10.10;99.90;;;;;;2071034;28;20064;-69
2022/04/06 00:49:38;;;;;;;12.75;10.20;;;10.10;99.90;;;;;;2071629;28;20083;-69
2022/04/06 00:50:41;;;;;;;12.40;10.57;;;10.10;99.90;;;;;;2071670;28;20068;-68
2022/04/06 00:51:45;;;;;;;13.60;11.13;;;10.10;99.90;;;;;;2072030;28;20437;-69
2022/04/06 00:52:48;;;;;;;14.20;11.00;;;10.10;99.90;;;;;;2072000;28;20030;-69
2022/04/06 00:53:48;;;;;;;13.80;11.18;;;10.10;99.90;;;;;;2071955;28;20386;-70
2022/04/06 00:54:50;;;;;;;12.70;10.75;;;10.00;99.90;;;;;;2072142;28;20030;-69
2022/04/06 00:55:50;;;;;;;12.95;10.82;;;10.00;99.90;;;;;;2072080;28;20397;-69
2022/04/06 00:56:51;;;;;;;14.43;11.35;;;10.00;99.90;;;;;;2072623;28;20069;-70
2022/04/06 00:57:52;;;;;;;13.43;11.20;;;10.00;99.90;;;;;;2072125;28;20034;-70
2022/04/06 00:58:52;;;;;;;14.10;11.02;;;10.00;99.90;;;;;;2071860;28;20022;-69
2022/04/06 00:59:55;;;;;;;13.95;11.07;;;9.90;99.90;;;;;;2071004;28;20113;-69
2022/04/06 01:00:56;;;;;;;13.43;11.27;;;9.90;99.90;;;;;;2063175;28;20045;-68
2022/04/06 01:01:58;;;;;;;13.70;11.43;;;9.90;99.90;;;;;;2070960;28;20432;-70
2022/04/06 01:02:59;;;;;;;14.63;11.65;;;9.90;99.90;;;;;;2070992;28;20054;-69
2022/04/06 01:04:00;;;;;;;13.60;11.93;;;9.90;99.90;;;;;;2071071;28;20513;-71
2022/04/06 01:05:00;;;;;;;14.75;11.95;;;9.80;99.90;;;;;;2070931;28;20460;-68
2022/04/06 01:06:01;;;;;;;14.10;11.43;;;9.80;99.90;;;;;;2070951;28;20765;-69
2022/04/06 01:07:02;;;;;;;13.75;11.65;;;9.80;99.90;;;;;;2071675;28;20040;-69
2022/04/06 01:08:03;;;;;;;13.55;11.50;;;9.80;99.90;;;;;;2071559;28;20037;-69
2022/04/06 01:09:03;;;;;;;14.43;12.05;;;9.80;99.90;;;;;;2071971;28;20033;-69
2022/04/06 01:10:05;;;;;;;14.25;11.38;;;9.80;99.90;;;;;;2072554;28;20137;-69
2022/04/06 01:11:05;;;;;;;13.73;11.40;;;9.80;99.90;;;;;;2073070;28;20072;-69
2022/04/06 01:12:07;;;;;;;14.07;11.63;;;9.80;99.90;;;;;;2072590;28;20335;-70
2022/04/06 01:13:07;;;;;;;13.65;11.73;;;9.70;99.90;;;;;;2071924;28;20117;-69
2022/04/06 01:14:08;;;;;;;13.57;11.45;;;9.70;99.90;;;;;;2070866;28;20121;-70
2022/04/06 01:15:09;;;;;;;14.18;11.98;;;9.70;99.90;;;;;;2071467;28;20029;-69
2022/04/06 01:16:10;;;;;;;14.10;11.98;;;9.70;99.90;;;;;;2071599;28;20054;-70
2022/04/06 01:17:10;;;;;;;15.55;12.38;;;9.60;99.90;;;;;;2070631;28;20085;-70
2022/04/06 01:18:11;;;;;;;14.60;11.93;;;9.60;99.90;;;;;;2062456;28;20534;-70
2022/04/06 01:19:11;;;;;;;15.13;12.65;;;9.60;99.90;;;;;;2070810;28;20033;-70
2022/04/06 01:20:13;;;;;;;14.20;12.07;;;9.60;99.90;;;;;;2071058;28;20389;-70
2022/04/06 01:21:13;;;;;;;15.50;12.43;;;9.60;99.90;;;;;;2071395;28;20157;-70
2022/04/06 01:22:16;;;;;;;14.85;12.02;;;9.60;99.90;;;;;;2071484;28;20037;-70
2022/04/06 01:23:16;;;;;;;15.07;12.45;;;9.50;99.90;;;;;;2071575;28;20100;-70
2022/04/06 01:24:18;;;;;;;15.95;12.57;;;9.50;99.90;;;;;;2071506;28;20025;-70
2022/04/06 01:25:19;;;;;;;14.45;12.43;;;9.50;99.90;;;;;;2071658;28;20030;-69
2022/04/06 01:26:20;;;;;;;16.38;13.10;;;9.50;99.90;;;;;;2071410;28;20525;-69
2022/04/06 01:27:20;;;;;;;16.38;13.05;;;9.50;99.90;;;;;;2071548;28;20069;-69
2022/04/06 01:28:21;;;;;;;16.17;13.35;;;9.40;99.90;;;;;;2071274;28;20408;-69
2022/04/06 01:29:22;;;;;;;15.13;12.70;;;9.40;99.90;;;;;;2070921;28;20813;-68
2022/04/06 01:30:22;;;;;;;16.98;13.77;;;9.40;99.90;;;;;;2070725;28;20038;-70
2022/04/06 01:31:23;;;;;;;18.10;13.88;;;9.40;99.90;;;;;;2071005;28;20085;-68
2022/04/06 01:32:26;;;;;;;17.20;13.85;;;9.40;99.90;;;;;;2063048;28;20058;-70
2022/04/06 01:33:28;;;;;;;19.88;14.38;;;9.40;99.90;;;;;;2062923;28;20034;-70
2022/04/06 01:34:29;;;;;;;17.05;13.65;;;9.40;99.90;;;;;;2071054;28;20034;-70
2022/04/06 01:35:29;;;;;;;18.45;13.88;;;9.30;99.90;;;;;;2071504;28;20507;-70
2022/04/06 01:36:30;;;;;;;18.38;14.35;;;9.30;99.90;;;;;;2071456;28;20637;-69
2022/04/06 01:37:31;;;;;;;18.42;13.85;;;9.40;99.90;;;;;;2071479;28;20444;-69
2022/04/06 01:38:32;;;;;;;17.17;14.05;;;9.30;99.90;;;;;;2071319;28;20477;-69
2022/04/06 01:39:33;;;;;;;16.98;13.63;;;9.30;99.90;;;;;;2071417;28;20038;-69
2022/04/06 01:40:33;;;;;;;16.85;13.90;;;9.30;99.90;;;;;;2071457;28;20029;-70
2022/04/06 01:41:34;;;;;;;17.30;13.88;;;9.30;99.90;;;;;;2071408;28;20120;-69
2022/04/06 01:42:35;;;;;;;18.52;14.55;;;9.30;99.90;;;;;;2071451;28;20026;-70
2022/04/06 01:43:35;;;;;;;17.58;14.13;;;9.30;99.90;;;;;;2070788;28;20137;-70
2022/04/06 01:44:37;;;;;;;17.48;13.90;;;9.30;99.90;;;;;;2062791;28;20062;-70
2022/04/06 01:45:38;;;;;;;17.42;14.20;;;9.30;99.90;;;;;;2070873;28;20107;-69
2022/04/06 01:46:38;;;;;;;18.08;14.52;;;9.40;99.90;;;;;;2071423;28;21755;-69
2022/04/06 01:47:39;;;;;;;18.75;15.00;;;9.30;99.90;;;;;;2070908;28;20100;-69
2022/04/06 01:52:12;;;;;;;17.83;14.63;;;9.30;99.90;;;;;;2070591;28;20034;-69
2022/04/06 01:52:38;;;;;;;20.42;15.32;;;9.20;99.90;;;;;;2071262;28;20030;-70
2022/04/06 01:53:39;;;;;;;20.00;15.90;;;9.20;99.90;;;;;;2071266;28;20393;-70
2022/04/06 01:54:40;;;;;;;18.88;14.85;;;9.20;99.90;;;;;;2071423;28;20037;-70
2022/04/06 01:55:41;;;;;;;18.90;15.38;;;9.20;99.90;;;;;;2071516;28;20034;-70
2022/04/06 01:56:41;;;;;;;19.15;15.27;;;9.20;99.90;;;;;;2071313;28;20458;-70
2022/04/06 01:57:43;;;;;;;19.90;15.57;;;9.20;99.90;;;;;;2070558;28;20026;-70
2022/04/06 01:58:44;;;;;;;19.42;15.40;;;9.20;99.90;;;;;;2070417;28;20030;-70
2022/04/06 01:59:44;;;;;;;20.67;15.57;;;9.20;99.90;;;;;;2071374;28;20026;-70
2022/04/06 02:00:46;;;;;;;19.88;16.08;;;9.20;99.90;;;;;;2071303;28;20026;-70
2022/04/06 02:01:52;;;;;;;20.08;15.57;;;9.20;99.90;;;;;;2070524;28;20034;-70
2022/04/06 02:02:54;;;;;;;19.60;15.65;;;9.20;99.90;;;;;;2072407;28;20033;-70
2022/04/06 02:03:54;;;;;;;19.70;15.70;;;9.20;99.90;;;;;;2072305;28;20041;-70
2022/04/06 02:04:55;;;;;;;19.90;15.77;;;9.20;99.90;;;;;;2072335;28;20018;-70
2022/04/06 02:05:56;;;;;;;20.42;16.30;;;9.20;99.90;;;;;;2072279;28;20026;-71
2022/04/06 02:06:57;;;;;;;20.05;16.08;;;9.20;99.90;;;;;;2072481;28;20525;-70
2022/04/06 02:07:57;;;;;;;20.38;15.55;;;9.20;99.90;;;;;;2072755;28;20022;-70
2022/04/06 02:08:58;;;;;;;19.80;15.65;;;9.20;99.90;;;;;;2072214;28;20065;-70
2022/04/06 02:10:00;;;;;;;20.13;16.08;;;9.20;99.90;;;;;;2072331;28;20036;-70
2022/04/06 02:11:00;;;;;;;21.02;15.93;;;9.20;99.90;;;;;;2073198;28;20022;-69
2022/04/06 02:12:01;;;;;;;20.08;15.95;;;9.20;99.90;;;;;;2073339;28;20022;-69
2022/04/06 02:13:02;;;;;;;20.58;15.75;;;9.20;99.90;;;;;;2073193;28;20034;-69
2022/04/06 02:14:06;;;;;;;21.98;16.73;;;9.20;99.90;;;;;;2072564;28;20037;-70
2022/04/06 02:15:10;;;;;;;21.38;16.77;;;9.20;99.90;;;;;;2072544;28;20022;-70
2022/04/06 02:16:11;;;;;;;21.20;16.98;;;9.20;99.90;;;;;;2072119;28;20498;-69
2022/04/06 02:17:11;;;;;;;21.10;16.73;;;9.30;99.90;;;;;;2072312;28;20022;-70
2022/04/06 02:18:12;;;;;;;21.42;16.75;;;9.20;99.90;;;;;;2073168;28;20176;-69
2022/04/06 02:19:12;;;;;;;20.08;16.38;;;9.30;99.90;;;;;;2073297;28;20120;-70
2022/04/06 02:20:13;;;;;;;22.38;17.42;;;9.30;99.90;;;;;;2073192;28;20030;-70
2022/04/06 02:21:14;;;;;;;22.52;17.40;;;9.30;99.90;;;;;;2074958;28;20040;-69
2022/04/06 02:22:15;;;;;;;22.73;17.27;;;9.30;99.90;;;;;;2073611;28;20061;-69
2022/04/06 02:23:15;;;;;;;21.00;17.02;;;9.30;99.90;;;;;;2072920;28;20026;-69
2022/04/06 02:24:17;;;;;;;20.83;16.50;;;9.30;99.90;;;;;;2072727;28;20460;-70
2022/04/06 02:25:18;;;;;;;21.58;16.60;;;9.40;99.90;;;;;;2072848;28;20022;-71
2022/04/06 02:26:18;;;;;;;20.77;16.67;;;9.40;99.90;;;;;;2072615;28;20504;-70
2022/04/06 02:27:19;;;;;;;21.70;16.77;;;9.40;99.90;;;;;;2072887;28;20048;-70
2022/04/06 02:28:20;;;;;;;21.40;17.00;;;9.40;99.90;;;;;;2072447;28;20070;-70
2022/04/06 02:29:20;;;;;;;21.23;16.92;;;9.40;99.90;;;;;;2072702;28;20055;-71
2022/04/06 02:30:21;;;;;;;21.75;17.02;;;9.40;99.90;;;;;;2071976;28;20037;-69
2022/04/06 02:31:22;;;;;;;20.90;16.35;;;9.40;99.90;;;;;;2072025;28;20072;-70
2022/04/06 02:32:23;;;;;;;21.52;16.73;;;9.40;99.90;;;;;;2072095;28;20033;-70
2022/04/06 02:33:24;;;;;;;20.83;16.63;;;9.40;99.90;;;;;;2072040;28;20117;-70
2022/04/06 02:34:24;;;;;;;21.10;16.77;;;9.40;99.90;;;;;;2071870;28;20049;-70
2022/04/06 02:35:25;;;;;;;19.73;16.23;;;9.40;99.90;;;;;;2072676;28;20109;-70
2022/04/06 02:36:26;;;;;;;21.52;17.10;;;9.50;99.90;;;;;;2072697;28;20049;-70
2022/04/06 02:37:26;;;;;;;20.92;17.13;;;9.50;99.90;;;;;;2072628;28;20615;-70
2022/04/06 02:38:27;;;;;;;20.42;16.50;;;9.50;99.90;;;;;;2072272;28;20037;-70
2022/04/06 02:39:27;;;;;;;21.35;16.38;;;9.50;99.90;;;;;;2072444;28;20110;-70
2022/04/06 02:40:30;;;;;;;20.42;16.02;;;9.50;99.90;;;;;;2072420;28;20036;-70
2022/04/06 02:41:30;;;;;;;21.67;16.33;;;9.50;99.90;;;;;;2072745;28;20026;-70
2022/04/06 02:42:31;;;;;;;20.27;16.25;;;9.50;99.90;;;;;;2071952;28;20037;-70
2022/04/06 02:43:32;;;;;;;21.35;16.40;;;9.50;99.90;;;;;;2072024;28;20026;-70
2022/04/06 02:44:33;;;;;;;20.92;16.60;;;9.50;99.90;;;;;;2072586;28;20118;-69
2022/04/06 02:45:33;;;;;;;21.00;16.45;;;9.50;99.90;;;;;;2072608;28;20069;-70
2022/04/06 02:46:34;;;;;;;21.67;16.83;;;9.50;99.90;;;;;;2072331;28;20022;-70
2022/04/06 02:47:36;;;;;;;21.73;16.40;;;9.50;99.90;;;;;;2072583;28;20144;-70
2022/04/06 02:48:37;;;;;;;20.80;15.85;;;9.50;99.90;;;;;;2072517;28;20696;-70
2022/04/06 02:49:38;;;;;;;19.40;15.70;;;9.50;99.90;;;;;;2072432;28;20121;-70
2022/04/06 02:50:38;;;;;;;19.58;15.57;;;9.50;99.90;;;;;;2072564;28;20053;-70
2022/04/06 02:51:39;;;;;;;21.48;16.67;;;9.50;99.90;;;;;;2072490;28;20064;-70
2022/04/06 02:52:40;;;;;;;21.05;16.48;;;9.50;99.90;;;;;;2072469;28;20120;-69
2022/04/06 02:53:40;;;;;;;19.73;15.52;;;9.50;99.90;;;;;;2071688;28;20033;-70
2022/04/06 02:54:41;;;;;;;19.75;15.70;;;9.50;99.90;;;;;;2071724;28;20045;-70
2022/04/06 02:55:41;;;;;;;19.90;15.88;;;9.50;99.90;;;;;;2072416;28;20200;-70
2022/04/06 02:56:42;;;;;;;20.02;15.00;;;9.50;99.90;;;;;;2072497;28;20022;-70
2022/04/06 02:57:43;;;;;;;19.95;15.60;;;9.50;99.90;;;;;;2072588;28;20165;-70
2022/04/06 02:58:44;;;;;;;19.42;15.45;;;9.50;99.90;;;;;;2072201;28;20088;-70
2022/04/06 02:59:45;;;;;;;19.80;14.95;;;9.50;99.90;;;;;;2072521;28;20045;-70
2022/04/06 03:00:46;;;;;;;19.05;14.73;;;9.50;99.90;;;;;;2072360;28;20061;-70
2022/04/06 03:01:47;;;;;;;19.17;14.52;;;9.50;99.90;;;;;;2072387;28;20030;-70
2022/04/06 03:02:47;;;;;;;19.48;15.00;;;9.50;99.90;;;;;;2072493;28;20030;-69
2022/04/06 03:03:48;;;;;;;18.45;14.25;;;9.50;99.90;;;;;;2072671;28;20084;-70
2022/04/06 03:04:48;;;;;;;18.35;14.48;;;9.50;99.90;;;;;;2072375;28;20029;-70
2022/04/06 03:05:49;;;;;;;18.40;14.27;;;9.50;99.90;;;;;;2072447;28;20080;-69
2022/04/06 03:06:49;;;;;;;18.50;14.90;;;9.60;99.90;;;;;;2071655;28;20105;-70
2022/04/06 03:07:51;;;;;;;19.05;14.68;;;9.60;99.90;;;;;;2063565;28;20035;-70
2022/04/06 03:08:51;;;;;;;17.83;14.48;;;9.60;99.90;;;;;;2071439;28;20022;-69
2022/04/06 03:09:52;;;;;;;18.13;14.32;;;9.60;99.90;;;;;;2071666;28;20054;-70
2022/04/06 03:10:53;;;;;;;18.08;14.55;;;9.60;99.90;;;;;;2071588;28;20038;-70
2022/04/06 03:11:53;;;;;;;19.67;14.98;;;9.60;99.90;;;;;;2072265;28;20065;-69
2022/04/06 03:12:54;;;;;;;19.00;14.50;;;9.60;99.90;;;;;;2071844;28;20386;-70
2022/04/06 03:13:54;;;;;;;18.77;14.60;;;9.60;99.90;;;;;;2071549;28;20038;-70
2022/04/06 03:14:55;;;;;;;19.20;14.80;;;9.60;99.90;;;;;;2071662;28;20030;-70
2022/04/06 03:15:56;;;;;;;19.33;14.73;;;9.60;99.90;;;;;;2071645;28;20033;-70
2022/04/06 03:16:57;;;;;;;18.63;14.88;;;9.60;99.90;;;;;;2072196;28;20026;-70
2022/04/06 03:17:57;;;;;;;19.73;15.02;;;9.60;99.90;;;;;;2072431;28;20473;-70
2022/04/06 03:18:58;;;;;;;18.40;14.90;;;9.60;99.90;;;;;;2072522;28;20022;-70
2022/04/06 03:19:58;;;;;;;18.58;14.75;;;9.60;99.90;;;;;;2071731;28;20152;-70
2022/04/06 03:20:59;;;;;;;19.38;15.05;;;9.60;99.90;;;;;;2071782;28;20413;-70
2022/04/06 03:22:00;;;;;;;19.60;14.85;;;9.60;99.90;;;;;;2071710;28;20037;-70
2022/04/06 03:23:01;;;;;;;22.35;15.57;;;9.60;99.90;;;;;;2071852;28;20458;-70
2022/04/06 03:24:02;;;;;;;21.00;15.18;;;9.50;99.90;;;;;;2071615;28;20083;-70
2022/04/06 03:25:03;;;;;;;18.92;15.05;;;9.60;99.90;;;;;;2071724;28;20084;-70
2022/04/06 03:26:04;;;;;;;19.02;14.68;;;9.60;99.90;;;;;;2071620;28;20040;-70
2022/04/06 03:27:04;;;;;;;19.73;14.32;;;9.60;99.90;;;;;;2071645;28;20030;-71
2022/04/06 03:28:05;;;;;;;19.40;14.40;;;9.50;99.90;;;;;;2071871;28;20431;-70
2022/04/06 03:29:06;;;;;;;18.00;14.00;;;9.60;99.90;;;;;;2072288;28;20062;-70
2022/04/06 03:30:11;;;;;;;18.95;14.48;;;9.60;99.90;;;;;;2072156;28;20038;-70
2022/04/06 03:31:12;;;;;;;19.70;14.77;;;9.50;99.90;;;;;;2072219;28;20113;-70
2022/04/06 03:32:12;;;;;;;18.55;14.23;;;9.50;99.90;;;;;;2072157;28;20026;-70
2022/04/06 03:33:15;;;;;;;19.15;14.80;;;9.50;99.90;;;;;;2072299;28;20473;-70
2022/04/06 03:34:15;;;;;;;17.83;14.27;;;9.60;99.90;;;;;;2071486;28;20026;-70
2022/04/06 03:35:16;;;;;;;17.98;14.20;;;9.50;99.90;;;;;;2071668;28;20040;-71
2022/04/06 03:36:16;;;;;;;18.15;14.18;;;9.50;99.90;;;;;;2072291;28;20026;-70
2022/04/06 03:37:17;;;;;;;18.52;14.48;;;9.50;99.90;;;;;;2072267;28;20025;-71
2022/04/06 03:38:18;;;;;;;19.30;14.40;;;9.50;99.90;;;;;;2072027;28;20405;-70
2022/04/06 03:39:18;;;;;;;17.48;13.85;;;9.50;99.90;;;;;;2072209;28;20660;-70
2022/04/06 03:40:19;;;;;;;18.08;14.30;;;9.50;99.90;;;;;;2072039;28;20374;-70
2022/04/06 03:41:20;;;;;;;18.95;14.77;;;9.60;99.90;;;;;;2071131;28;20026;-70
2022/04/06 03:42:20;;;;;;;18.35;14.00;;;9.60;99.90;;;;;;2071466;28;20112;-70
2022/04/06 03:43:22;;;;;;;17.83;13.45;;;9.60;99.90;;;;;;2072212;28;20109;-70
2022/04/06 03:44:22;;;;;;;18.45;14.52;;;9.60;99.90;;;;;;2072171;28;20037;-70
2022/04/06 03:45:23;;;;;;;17.67;14.18;;;9.60;99.90;;;;;;2071985;28;20588;-70
2022/04/06 03:46:23;;;;;;;18.50;14.05;;;9.60;99.90;;;;;;2071960;28;20404;-71
2022/04/06 03:47:29;;;;;;;17.23;13.98;;;9.60;99.90;;;;;;2071214;28;20042;-70
2022/04/06 03:48:29;;;;;;;17.10;13.45;;;9.60;99.90;;;;;;2071155;28;20049;-70
2022/04/06 03:49:31;;;;;;;17.17;13.77;;;9.60;99.90;;;;;;2071436;28;20044;-70
2022/04/06 03:50:32;;;;;;;18.02;14.25;;;9.60;99.90;;;;;;2071366;28;20029;-70
2022/04/06 03:51:32;;;;;;;17.23;13.10;;;9.60;99.90;;;;;;2071493;28;20034;-70
2022/04/06 03:52:33;;;;;;;16.73;13.63;;;9.60;99.90;;;;;;2072166;28;20726;-70
2022/04/06 03:53:35;;;;;;;18.05;13.55;;;9.60;99.90;;;;;;2072308;28;20030;-71
2022/04/06 03:54:36;;;;;;;16.50;12.98;;;9.70;99.90;;;;;;2073034;28;20052;-71
2022/04/06 03:55:36;;;;;;;17.13;13.57;;;9.60;99.90;;;;;;2072899;28;20481;-71
2022/04/06 03:56:38;;;;;;;17.40;13.38;;;9.70;99.90;;;;;;2072934;28;20105;-71
2022/04/06 03:57:39;;;;;;;16.50;13.20;;;9.70;99.90;;;;;;2072942;28;20034;-71
2022/04/06 03:58:39;;;;;;;16.73;13.13;;;9.70;99.90;;;;;;2073835;28;20635;-71
2022/04/06 03:59:40;;;;;;;15.95;12.73;;;9.60;99.90;;;;;;2072002;28;20081;-71
2022/04/06 04:00:40;;;;;;;17.15;13.18;;;9.60;99.90;;;;;;2071973;28;20085;-71
2022/04/06 04:01:41;;;;;;;16.27;13.52;;;9.60;99.90;;;;;;2071490;28;20664;-70
2022/04/06 04:05:05;;;;;;;17.08;13.10;;;9.60;99.90;;;;;;2072212;28;20038;-70
2022/04/06 04:06:05;;;;;;;17.70;12.90;;;9.60;99.90;;;;;;2072541;28;20026;-70
2022/04/06 04:07:09;;;;;;;17.60;12.70;;;9.60;99.90;;;;;;2071954;28;20072;-70
2022/04/06 04:08:09;;;;;;;16.33;13.18;;;9.60;99.90;;;;;;2072044;28;20056;-70
2022/04/06 04:09:10;;;;;;;17.05;13.20;;;9.60;99.90;;;;;;2071960;28;20060;-70
2022/04/06 04:10:11;;;;;;;16.50;13.27;;;9.60;99.90;;;;;;2071909;28;20026;-72
2022/04/06 04:11:11;;;;;;;17.50;13.20;;;9.60;99.90;;;;;;2072154;28;20022;-70
2022/04/06 04:12:12;;;;;;;17.58;13.38;;;9.60;99.90;;;;;;2072063;28;20034;-70
2022/04/06 04:13:13;;;;;;;16.77;12.95;;;9.60;99.90;;;;;;2070953;28;20025;-70
2022/04/06 04:14:14;;;;;;;16.77;13.30;;;9.60;99.90;;;;;;2071093;28;20034;-70
2022/04/06 04:15:15;;;;;;;16.00;13.15;;;9.70;99.90;;;;;;2072047;28;20037;-71
2022/04/06 04:16:15;;;;;;;17.45;13.30;;;9.70;99.90;;;;;;2071976;28;20109;-70
2022/04/06 04:17:16;;;;;;;17.77;13.45;;;9.70;99.90;;;;;;2072120;28;20033;-72
2022/04/06 04:18:17;;;;;;;17.67;13.85;;;9.70;99.90;;;;;;2072190;28;20033;-69
2022/04/06 04:19:17;;;;;;;16.77;13.45;;;9.70;99.90;;;;;;2072733;28;20033;-71
2022/04/06 04:20:18;;;;;;;17.17;13.45;;;9.70;99.90;;;;;;2072594;28;20029;-72
2022/04/06 04:21:34;;;;;;;17.38;13.82;;;9.70;99.90;;;;;;2071935;28;20116;-72
2022/04/06 04:22:35;;;;;;;16.17;13.25;;;9.70;99.90;;;;;;2072385;28;20064;-72
2022/04/06 04:23:35;;;;;;;17.05;13.20;;;9.70;99.90;;;;;;2072180;28;20030;-72
2022/04/06 04:24:36;;;;;;;19.58;13.85;;;9.70;99.90;;;;;;2072263;28;20121;-71
2022/04/06 04:25:36;;;;;;;16.73;13.52;;;9.80;99.90;;;;;;2071722;28;20500;-70
2022/04/06 04:26:38;;;;;;;16.48;13.25;;;9.70;99.90;;;;;;2071886;28;20412;-70
2022/04/06 04:27:39;;;;;;;18.35;13.38;;;9.80;99.90;;;;;;2072011;28;20385;-71
2022/04/06 04:28:40;;;;;;;17.50;13.48;;;9.70;99.90;;;;;;2071906;28;20545;-70
2022/04/06 04:29:40;;;;;;;18.00;13.52;;;9.80;99.90;;;;;;2072265;28;20037;-70
2022/04/06 04:30:41;;;;;;;20.25;13.93;;;9.80;99.90;;;;;;2071954;28;20105;-69
2022/04/06 04:31:42;;;;;;;18.65;13.40;;;9.80;99.90;;;;;;2071589;28;20055;-70
2022/04/06 04:32:42;;;;;;;17.95;13.75;;;9.80;99.90;;;;;;2063146;28;20084;-70
2022/04/06 04:33:43;;;;;;;17.98;13.95;;;9.80;99.90;;;;;;2062860;28;20053;-70
2022/04/06 04:34:44;;;;;;;17.52;13.77;;;9.80;99.90;;;;;;2071337;28;20030;-70
2022/04/06 04:35:45;;;;;;;17.83;13.20;;;9.80;99.90;;;;;;2072249;28;20116;-70
2022/04/06 04:36:45;;;;;;;17.95;14.02;;;9.80;99.90;;;;;;2072131;28;20025;-70
2022/04/06 04:37:46;;;;;;;19.17;13.68;;;9.80;99.90;;;;;;2072901;28;20076;-70
2022/04/06 04:38:46;;;;;;;19.70;14.35;;;9.80;99.90;;;;;;2072471;28;20104;-70
2022/04/06 04:39:47;;;;;;;17.58;13.77;;;9.80;99.90;;;;;;2072574;28;20032;-69
2022/04/06 04:40:48;;;;;;;17.95;13.57;;;9.80;99.90;;;;;;2072327;28;20032;-70
2022/04/06 04:41:51;;;;;;;18.00;13.88;;;9.80;99.90;;;;;;2072416;28;20037;-69
2022/04/06 04:42:53;;;;;;;17.33;13.70;;;9.80;99.90;;;;;;2072126;28;20639;-69
2022/04/06 04:43:53;;;;;;;18.25;13.98;;;9.80;99.90;;;;;;2072569;28;20030;-71
2022/04/06 04:44:54;;;;;;;16.40;13.48;;;9.80;99.90;;;;;;2072873;28;20452;-70
2022/04/06 04:45:54;;;;;;;18.83;14.00;;;9.80;99.90;;;;;;2072304;28;20033;-71
2022/04/06 04:46:55;;;;;;;17.73;13.63;;;9.80;99.90;;;;;;2071819;28;20044;-70
2022/04/06 04:47:57;;;;;;;17.33;13.75;;;9.80;99.90;;;;;;2072468;28;20121;-70
2022/04/06 04:48:58;;;;;;;18.05;13.82;;;9.80;99.90;;;;;;2071707;28;20038;-71
2022/04/06 04:49:59;;;;;;;17.55;13.70;;;9.80;99.90;;;;;;2072156;28;20084;-71
2022/04/06 04:51:00;;;;;;;17.88;13.48;;;9.80;99.90;;;;;;2071808;28;20091;-71
2022/04/06 04:52:00;;;;;;;17.95;13.63;;;9.80;99.90;;;;;;2071639;28;20132;-70
2022/04/06 04:53:01;;;;;;;18.10;13.43;;;9.80;99.90;;;;;;2071793;28;20026;-70
2022/04/06 04:54:03;;;;;;;16.55;12.93;;;9.80;99.90;;;;;;2072210;28;20133;-71
2022/04/06 04:55:04;;;;;;;18.77;13.80;;;9.80;99.90;;;;;;2071332;28;20025;-71
2022/04/06 04:56:05;;;;;;;18.55;13.73;;;9.80;99.90;;;;;;2063659;28;20030;-72
2022/04/06 04:57:06;;;;;;;15.65;12.48;;;9.80;99.90;;;;;;2071502;28;20018;-71
2022/04/06 04:58:06;;;;;;;16.80;12.85;;;9.80;99.90;;;;;;2072547;28;20079;-71
2022/04/06 04:59:07;;;;;;;15.98;12.32;;;9.90;99.90;;;;;;2072289;28;20109;-72
2022/04/06 05:00:09;;;;;;;17.55;12.93;;;9.80;99.90;;;;;;2072335;28;20029;-71
2022/04/06 05:01:10;;;;;;;16.80;12.75;;;9.90;99.90;;;;;;2071803;28;20068;-72
2022/04/06 05:02:10;;;;;;;18.08;12.75;;;9.90;99.90;;;;;;2072214;28;20068;-71
2022/04/06 05:03:11;;;;;;;15.40;12.32;;;9.90;99.90;;;;;;2072456;28;20061;-71
2022/04/06 05:04:13;;;;;;;16.90;12.88;;;9.90;99.90;;;;;;2065183;28;20026;-71
2022/04/06 05:05:14;;;;;;;17.40;12.52;;;9.90;99.90;;;;;;2072919;28;20049;-75
2022/04/06 05:06:15;;;;;;;16.75;12.63;;;9.90;99.90;;;;;;2064602;28;20097;-72
2022/04/06 05:07:18;;;;;;;15.18;12.15;;;9.90;99.90;;;;;;2065361;28;20668;-72
2022/04/06 05:08:26;;;;;;;15.50;11.90;;;9.90;99.90;;;;;;2072789;28;20026;-71
2022/04/06 05:09:27;;;;;;;17.23;12.68;;;10.00;99.90;;;;;;2073629;28;20018;-72
2022/04/06 05:10:28;;;;;;;19.40;12.65;;;10.00;99.90;;;;;;2072683;28;20034;-71
2022/04/06 05:11:37;;;;;;;17.40;13.27;;;10.00;99.90;;;;;;2064374;28;20026;-70
2022/04/06 05:12:38;;;;;;;19.08;13.20;;;10.00;99.90;;;;;;2058310;28;20026;-71
2022/04/06 05:13:39;;;;;;;18.50;13.55;;;9.90;99.90;;;;;;2056150;28;20525;-71
2022/04/06 05:14:39;;;;;;;19.38;14.93;;;10.00;99.90;;;;;;2072165;28;20108;-71
2022/04/06 05:15:44;;;;;;;16.42;13.48;;;10.00;99.90;;;;;;2072062;28;20053;-70
2022/04/06 05:16:51;;;;;;;16.33;13.13;;;10.00;99.90;;;;;;2071541;28;20036;-73
2022/04/06 05:17:55;;;;;;;18.30;14.02;;;10.00;99.90;;;;;;2071565;28;20030;-71
2022/04/06 05:18:56;;;;;;;22.58;18.17;;;10.00;99.90;;;;;;2063733;28;20050;-72
2022/04/06 05:19:57;;;;;;;16.42;12.93;;;10.00;99.90;;;;;;2071249;28;20101;-72